Time;durP1;ratioP1;P1;durP2;ratioP2;P2;SDS_P1;SDS_P2;PMS_P1;PMS_P2;Temp;Humidity;BMP_temperature;BMP_pressure;BME280_temperature;BME280_humidity;BME280_pressure;Samples;Min_cycle;Max_cycle;Signal;HPM_P1;HPM_P2
2021/11/09 00:00:55;;;;;;;2.22;0.77;;;;;;;12.20;100.00;100253.47;5075282;28;20035;-48
2021/11/09 00:04:05;;;;;;;1.85;0.60;;;;;;;12.17;100.00;100248.84;5075175;28;20186;-49
2021/11/09 00:07:22;;;;;;;2.58;0.25;;;;;;;12.15;100.00;100251.31;5075451;28;20070;-48
2021/11/09 00:10:28;;;;;;;2.05;0.50;;;;;;;12.18;100.00;100251.16;5091868;28;20218;-49
2021/11/09 00:13:31;;;;;;;2.38;0.63;;;;;;;12.05;100.00;100253.41;5075254;28;20591;-48
2021/11/09 00:16:35;;;;;;;1.33;0.80;;;;;;;11.94;100.00;100261.56;5080705;28;20043;-48
2021/11/09 00:19:37;;;;;;;1.55;0.73;;;;;;;11.90;100.00;100252.59;5074978;28;20051;-48
2021/11/09 00:22:41;;;;;;;4.07;0.40;;;;;;;11.81;100.00;100249.84;5074681;28;20039;-49
2021/11/09 00:25:44;;;;;;;0.47;0.32;;;;;;;11.63;100.00;100249.91;5074757;28;20124;-48
2021/11/09 00:28:46;;;;;;;0.77;0.50;;;;;;;11.48;100.00;100245.53;5074474;28;20102;-49
2021/11/09 00:31:50;;;;;;;1.42;0.55;;;;;;;11.35;100.00;100245.72;5074361;28;20052;-49
2021/11/09 00:34:53;;;;;;;0.30;0.30;;;;;;;11.33;100.00;100239.84;5074481;28;20093;-49
2021/11/09 00:37:58;;;;;;;0.25;0.20;;;;;;;11.58;100.00;100236.63;5074760;28;20044;-49
2021/11/09 00:41:03;;;;;;;1.05;0.50;;;;;;;11.51;100.00;100244.56;5074898;28;20170;-49
2021/11/09 00:44:06;;;;;;;1.17;0.65;;;;;;;11.48;100.00;100237.16;5074511;28;20066;-49
2021/11/09 00:47:09;;;;;;;0.10;0.10;;;;;;;11.43;100.00;100235.78;5074264;28;20074;-49
2021/11/09 00:50:15;;;;;;;1.42;0.30;;;;;;;11.51;100.00;100245.34;5074463;28;20047;-57
2021/11/09 00:53:19;;;;;;;0.43;0.43;;;;;;;11.46;100.00;100239.66;5074167;28;20048;-57
2021/11/09 00:56:22;;;;;;;4.80;1.48;;;;;;;11.40;100.00;100236.72;5074708;28;20031;-57
2021/11/09 00:59:27;;;;;;;0.20;0.20;;;;;;;11.59;100.00;100249.31;5074145;28;20048;-57
2021/11/09 01:02:30;;;;;;;2.97;0.63;;;;;;;11.69;100.00;100253.66;5074119;28;20050;-57
2021/11/09 01:05:34;;;;;;;7.25;0.40;;;;;;;11.73;100.00;100247.91;5073685;28;20071;-57
2021/11/09 01:08:37;;;;;;;1.08;0.80;;;;;;;11.71;100.00;100259.53;5074264;28;20381;-57
2021/11/09 01:11:40;;;;;;;1.63;0.43;;;;;;;11.61;100.00;100260.78;5073710;28;20055;-54
2021/11/09 01:14:43;;;;;;;0.70;0.50;;;;;;;11.52;100.00;100266.41;5073823;28;20086;-57
2021/11/09 01:17:47;;;;;;;0.20;0.20;;;;;;;11.68;100.00;100262.47;5076134;28;20491;-56
2021/11/09 01:20:50;;;;;;;0.25;0.17;;;;;;;11.65;100.00;100269.75;5072906;28;20067;-56
2021/11/09 01:23:55;;;;;;;0.82;0.70;;;;;;;11.89;100.00;100273.38;5073203;28;20126;-56
2021/11/09 01:26:58;;;;;;;0.30;0.20;;;;;;;12.16;100.00;100264.81;5073561;28;20044;-56
2021/11/09 01:30:05;;;;;;;0.82;0.25;;;;;;;12.39;100.00;100268.81;5073279;28;20157;-56
2021/11/09 01:33:08;;;;;;;0.77;0.32;;;;;;;12.52;100.00;100274.16;5073790;28;20109;-56
2021/11/09 01:36:11;;;;;;;0.63;0.63;;;;;;;12.62;100.00;100272.84;5073348;28;20134;-56
2021/11/09 01:39:14;;;;;;;0.38;0.38;;;;;;;12.70;100.00;100268.41;5072517;28;20071;-56
2021/11/09 01:42:18;;;;;;;0.30;0.30;;;;;;;12.82;100.00;100270.16;5073338;28;20142;-56
2021/11/09 01:45:22;;;;;;;1.75;0.65;;;;;;;12.90;100.00;100271.31;5073258;28;20043;-56
2021/11/09 01:48:26;;;;;;;1.75;1.13;;;;;;;12.92;100.00;100268.81;5073533;28;20051;-56
2021/11/09 01:51:29;;;;;;;1.23;0.35;;;;;;;12.99;100.00;100274.03;5073325;28;20078;-56
2021/11/09 01:54:33;;;;;;;0.30;0.30;;;;;;;12.95;100.00;100273.41;5073114;28;20090;-56
2021/11/09 01:57:36;;;;;;;0.50;0.47;;;;;;;12.97;100.00;100273.75;5073134;28;20182;-57
2021/11/09 02:00:49;;;;;;;1.88;0.35;;;;;;;12.98;100.00;100283.66;5073011;28;20466;-57
2021/11/09 02:03:56;;;;;;;0.40;0.40;;;;;;;12.57;100.00;100276.28;5072760;28;20389;-57
2021/11/09 02:06:59;;;;;;;2.42;0.65;;;;;;;11.93;100.00;100276.75;5073018;28;20078;-57
2021/11/09 02:10:02;;;;;;;0.43;0.10;;;;;;;12.12;100.00;100278.19;5072447;28;20491;-56
2021/11/09 02:13:06;;;;;;;0.13;0.10;;;;;;;12.77;100.00;100263.22;5072877;28;20422;-57
2021/11/09 02:16:11;;;;;;;1.27;0.77;;;;;;;11.95;100.00;100265.88;5078532;28;20100;-56
2021/11/09 02:19:14;;;;;;;0.20;0.20;;;;;;;11.80;100.00;100265.03;5073017;28;20050;-56
2021/11/09 02:22:17;;;;;;;2.83;0.47;;;;;;;12.38;100.00;100252.56;5071651;28;20051;-56
2021/11/09 02:25:24;;;;;;;0.10;0.10;;;;;;;12.45;100.00;100249.41;5072848;28;20536;-56
2021/11/09 02:28:28;;;;;;;0.10;0.10;;;;;;;12.46;100.00;100253.72;5072467;28;20094;-56
2021/11/09 02:31:31;;;;;;;0.52;0.28;;;;;;;12.36;100.00;100249.47;5072582;28;20063;-57
2021/11/09 02:34:35;;;;;;;1.35;0.70;;;;;;;12.20;100.00;100259.06;5072692;28;20082;-57
2021/11/09 02:37:37;;;;;;;1.42;0.63;;;;;;;12.46;100.00;100242.53;5071471;28;20431;-57
2021/11/09 02:40:41;;;;;;;0.10;0.10;;;;;;;12.38;100.00;100241.38;5071836;28;20079;-57
2021/11/09 02:43:44;;;;;;;0.55;0.30;;;;;;;12.30;100.00;100229.78;5072282;28;20116;-58
2021/11/09 02:46:53;;;;;;;0.47;0.47;;;;;;;12.16;100.00;100225.75;5072285;28;20044;-57
2021/11/09 02:50:07;;;;;;;0.43;0.30;;;;;;;12.12;100.00;100230.75;5073451;28;20098;-57
2021/11/09 02:53:15;;;;;;;0.50;0.50;;;;;;;12.02;100.00;100232.03;5076370;28;20043;-57
2021/11/09 03:05:41;;;;;;;0.17;0.17;;;;;;;11.65;100.00;100225.09;5076272;28;20089;-56
2021/11/09 03:09:37;;;;;;;0.75;0.30;;;;;;;11.62;100.00;100225.28;5076275;28;20051;-57
2021/11/09 03:12:11;;;;;;;0.17;0.10;;;;;;;11.65;100.00;100219.53;5076241;28;20198;-56
2021/11/09 03:15:18;;;;;;;0.80;0.40;;;;;;;11.66;100.00;100220.31;5075859;28;20409;-57
2021/11/09 03:18:24;;;;;;;0.10;0.10;;;;;;;11.72;100.00;100226.81;5080291;28;20062;-56
2021/11/09 03:45:06;;;;;;;0.20;0.10;;;;;;;10.19;100.00;100226.78;5092506;28;20043;-57
2021/11/09 03:48:12;;;;;;;0.13;0.10;;;;;;;10.72;100.00;100223.66;5075225;28;20051;-56
2021/11/09 03:51:15;;;;;;;0.25;0.20;;;;;;;10.60;100.00;100219.78;5075608;28;20087;-57
2021/11/09 03:54:25;;;;;;;0.32;0.28;;;;;;;10.55;100.00;100218.41;5075692;28;20090;-56
2021/11/09 03:58:21;;;;;;;0.45;0.45;;;;;;;10.53;100.00;100229.25;5075389;28;20109;-57
2021/11/09 04:14:03;;;;;;;0.10;0.10;;;;;;;10.80;100.00;100216.50;5075318;28;20132;-57
2021/11/09 04:17:40;;;;;;;0.20;0.20;;;;;;;10.79;100.00;100220.50;5086744;28;20464;-56
2021/11/09 05:03:03;;;;;;;1.27;0.60;;;;;;;12.34;100.00;100249.97;5079906;28;20048;-57
2021/11/09 05:09:36;;;;;;;;;;;;;;;12.38;100.00;100247.75;5076986;28;20059;-56
2021/11/09 05:12:39;;;;;;;2.53;0.30;;;;;;;12.70;100.00;100249.63;5081733;28;19938;-57
2021/11/09 05:15:43;;;;;;;0.10;0.10;;;;;;;12.73;100.00;100250.69;5076556;28;20093;-56
2021/11/09 05:18:46;;;;;;;0.10;0.10;;;;;;;12.69;100.00;100242.47;5080991;28;20122;-56
2021/11/09 05:21:49;;;;;;;5.38;0.40;;;;;;;12.67;100.00;100249.78;5073777;28;20044;-57
2021/11/09 05:24:52;;;;;;;14.50;0.38;;;;;;;12.77;100.00;100248.47;5073464;28;20110;-57
2021/11/09 05:27:55;;;;;;;0.40;0.40;;;;;;;12.88;100.00;100251.47;5073598;28;20039;-56
2021/11/09 05:30:58;;;;;;;0.15;0.15;;;;;;;12.87;100.00;100249.91;5073112;28;20059;-57
2021/11/09 05:34:03;;;;;;;3.70;0.28;;;;;;;12.88;100.00;100246.66;5073287;28;20039;-57
2021/11/09 05:37:09;;;;;;;4.20;0.55;;;;;;;13.00;100.00;100242.00;5073665;28;20067;-56
2021/11/09 05:40:13;;;;;;;1.00;0.40;;;;;;;12.96;100.00;100247.03;5073381;28;20550;-57
2021/11/09 05:43:16;;;;;;;0.10;0.10;;;;;;;12.90;100.00;100255.31;5073520;28;20093;-57
2021/11/09 05:46:19;;;;;;;0.60;0.55;;;;;;;12.93;100.00;100245.97;5073308;28;20079;-57
2021/11/09 05:49:25;;;;;;;0.63;0.38;;;;;;;12.92;100.00;100246.44;5073571;28;20128;-57
2021/11/09 05:52:27;;;;;;;0.40;0.40;;;;;;;12.94;100.00;100252.31;5073025;28;20059;-56
2021/11/09 05:55:31;;;;;;;1.27;0.90;;;;;;;12.92;100.00;100246.44;5072846;28;20098;-57
2021/11/09 05:58:34;;;;;;;0.10;0.10;;;;;;;12.88;100.00;100254.25;5073104;28;20051;-56
2021/11/09 06:01:36;;;;;;;0.10;0.10;;;;;;;12.86;100.00;100262.34;5073090;28;20048;-57
2021/11/09 06:04:39;;;;;;;0.35;0.35;;;;;;;12.85;100.00;100255.22;5072661;28;20451;-58
2021/11/09 06:07:42;;;;;;;0.20;0.20;;;;;;;12.84;100.00;100267.66;5073064;28;20047;-58
2021/11/09 06:10:46;;;;;;;0.45;0.30;;;;;;;12.80;100.00;100261.47;5072763;28;20040;-57
2021/11/09 06:13:49;;;;;;;0.38;0.10;;;;;;;12.81;100.00;100265.81;5072576;28;20051;-57
2021/11/09 06:16:51;;;;;;;0.10;0.10;;;;;;;12.74;100.00;100257.81;5074298;28;20534;-57
2021/11/09 06:19:54;;;;;;;0.85;0.20;;;;;;;12.79;100.00;100254.34;5089347;28;20043;-57
2021/11/09 06:22:58;;;;;;;4.18;0.35;;;;;;;12.81;100.00;100255.41;5072133;28;20098;-57
2021/11/09 06:26:02;;;;;;;1.20;0.43;;;;;;;12.90;100.00;100254.53;5072492;28;20043;-57
2021/11/09 06:29:06;;;;;;;1.58;0.35;;;;;;;12.94;100.00;100246.75;5072225;28;20061;-57
2021/11/09 06:32:09;;;;;;;1.00;0.77;;;;;;;12.98;100.00;100240.94;5071873;28;20048;-57
2021/11/09 06:35:13;;;;;;;4.45;0.93;;;;;;;12.96;100.00;100235.84;5072430;28;20047;-57
2021/11/09 06:38:16;;;;;;;12.30;1.52;;;;;;;13.05;100.00;100230.19;5072546;28;20120;-57
2021/11/09 06:41:19;;;;;;;1.35;1.05;;;;;;;13.12;100.00;100232.59;5072566;28;20098;-48
2021/11/09 06:44:22;;;;;;;4.68;1.10;;;;;;;13.15;100.00;100237.19;5072506;28;20055;-48
2021/11/09 06:47:24;;;;;;;2.85;0.20;;;;;;;13.16;100.00;100233.16;5072370;28;20046;-49
2021/11/09 06:50:28;;;;;;;1.70;0.52;;;;;;;13.06;100.00;100237.31;5072850;28;20142;-48
2021/11/09 06:53:31;;;;;;;4.20;1.13;;;;;;;13.04;100.00;100239.78;5072189;28;20031;-48
2021/11/09 06:56:35;;;;;;;0.25;0.25;;;;;;;13.05;100.00;100238.56;5072371;28;20102;-48
2021/11/09 06:59:39;;;;;;;8.10;0.50;;;;;;;13.05;100.00;100235.78;5071648;28;20067;-48
2021/11/09 07:02:42;;;;;;;2.67;0.55;;;;;;;13.05;100.00;100238.56;5071881;28;20043;-49
2021/11/09 07:05:45;;;;;;;3.30;0.88;;;;;;;13.06;100.00;100234.50;5071876;28;20082;-48
2021/11/09 07:08:48;;;;;;;0.43;0.32;;;;;;;12.94;100.00;100232.75;5072175;28;20078;-48
2021/11/09 07:11:51;;;;;;;0.20;0.20;;;;;;;12.80;100.00;100234.28;5072095;28;20400;-48
2021/11/09 07:14:54;;;;;;;0.20;0.20;;;;;;;12.65;100.00;100232.75;5072189;28;20531;-48
2021/11/09 07:17:57;;;;;;;0.25;0.25;;;;;;;12.48;100.00;100245.63;5072030;28;20527;-48
2021/11/09 07:21:00;;;;;;;0.22;0.22;;;;;;;12.33;100.00;100244.81;5072117;28;20062;-48
2021/11/09 07:24:05;;;;;;;0.30;0.30;;;;;;;12.14;100.00;100245.00;5071928;28;20531;-48
2021/11/09 07:27:08;;;;;;;3.80;0.20;;;;;;;11.98;100.00;100248.19;5071886;28;20054;-48
2021/11/09 07:30:12;;;;;;;2.53;0.57;;;;;;;11.88;100.00;100255.09;5070938;28;20139;-48
2021/11/09 07:33:15;;;;;;;0.13;0.13;;;;;;;11.77;100.00;100254.84;5071562;28;20090;-48
2021/11/09 07:36:18;;;;;;;1.10;0.73;;;;;;;11.63;100.00;100255.50;5073456;28;20123;-48
2021/11/09 07:39:22;;;;;;;4.63;0.45;;;;;;;11.56;100.00;100269.03;5075620;28;20114;-48
2021/11/09 07:42:26;;;;;;;0.28;0.28;;;;;;;11.48;100.00;100271.38;5075371;28;20051;-48
2021/11/09 07:45:29;;;;;;;0.25;0.25;;;;;;;11.40;100.00;100272.97;5075447;28;20062;-57
2021/11/09 07:48:32;;;;;;;1.75;0.43;;;;;;;11.42;100.00;100265.69;5075891;28;20097;-57
2021/11/09 07:51:36;;;;;;;0.20;0.10;;;;;;;11.40;100.00;100254.22;5075538;28;20408;-57
2021/11/09 07:54:44;;;;;;;5.43;0.30;;;;;;;11.46;100.00;100262.72;5082216;28;20855;-57
2021/11/09 07:57:53;;;;;;;0.38;0.38;;;;;;;11.40;100.00;100262.59;5075054;28;20116;-57
2021/11/09 08:01:06;;;;;;;8.00;0.65;;;;;;;11.02;100.00;100272.78;5075176;28;20117;-56
2021/11/09 08:07:18;;;;;;;0.60;0.30;;;;;;;10.38;100.00;100303.50;5074258;28;20047;-48
2021/11/09 08:10:21;;;;;;;1.55;0.77;;;;;;;10.39;100.00;100310.63;5074112;28;20079;-56
2021/11/09 08:13:24;;;;;;;0.32;0.32;;;;;;;10.49;100.00;100303.03;5074275;28;20054;-57
2021/11/09 08:16:27;;;;;;;0.35;0.17;;;;;;;11.14;100.00;100297.69;5083697;28;20561;-57
2021/11/09 08:19:31;;;;;;;1.38;0.50;;;;;;;10.60;100.00;100304.13;5075809;28;20090;-57
2021/11/09 08:22:34;;;;;;;0.52;0.38;;;;;;;10.61;100.00;100304.91;5074245;28;20511;-57
2021/11/09 08:25:37;;;;;;;1.30;0.55;;;;;;;10.64;100.00;100301.94;5074237;28;20047;-56
2021/11/09 08:28:42;;;;;;;1.27;0.43;;;;;;;10.75;100.00;100300.69;5074123;28;20078;-57
2021/11/09 08:31:46;;;;;;;1.40;0.30;;;;;;;10.74;100.00;100305.50;5074225;28;20401;-57
2021/11/09 08:34:49;;;;;;;0.50;0.38;;;;;;;10.87;100.00;100310.91;5086482;28;20119;-57
2021/11/09 08:37:54;;;;;;;2.20;0.47;;;;;;;11.10;100.00;100307.44;5074115;28;20120;-55
2021/11/09 08:40:59;;;;;;;0.90;0.90;;;;;;;11.71;100.00;100290.22;5073205;28;20059;-57
2021/11/09 08:44:23;;;;;;;3.95;0.60;;;;;;;12.14;100.00;100288.88;5074537;28;20097;-57
2021/11/09 08:47:29;;;;;;;3.65;0.47;;;;;;;12.49;100.00;100297.47;5073421;28;20082;-56
2021/11/09 08:50:33;;;;;;;0.40;0.30;;;;;;;12.80;100.00;100295.78;5074333;28;20043;-57
2021/11/09 08:53:41;;;;;;;1.65;0.50;;;;;;;13.00;100.00;100285.97;5073817;28;20464;-57
2021/11/09 08:56:52;;;;;;;1.77;0.90;;;;;;;12.68;100.00;100298.84;5073853;28;20036;-57
2021/11/09 09:04:12;;;;;;;0.28;0.20;;;;;;;13.17;100.00;100301.03;5074009;28;20051;-55
2021/11/09 09:07:01;;;;;;;2.50;0.75;;;;;;;12.73;100.00;100296.16;5074082;28;20051;-58
2021/11/09 09:10:08;;;;;;;0.10;0.10;;;;;;;12.85;100.00;100300.72;5072773;28;20044;-57
2021/11/09 09:13:11;;;;;;;2.63;0.98;;;;;;;13.13;100.00;100297.66;5073098;28;20077;-48
2021/11/09 09:16:14;;;;;;;0.45;0.20;;;;;;;12.85;100.00;100299.94;5075414;28;20082;-48
2021/11/09 09:19:22;;;;;;;0.20;0.10;;;;;;;12.94;100.00;100289.44;5073409;28;20550;-48
2021/11/09 09:22:34;;;;;;;0.85;0.40;;;;;;;13.18;100.00;100297.78;5073231;28;20069;-48
2021/11/09 09:56:05;;;;;;;1.55;0.22;;;;;;;14.85;100.00;100290.44;5073110;28;19985;-48
2021/11/09 09:59:11;;;;;;;3.92;1.15;;;;;;;14.82;100.00;100290.63;5072114;28;20046;-47
2021/11/09 10:02:29;;;;;;;3.05;0.55;;;;;;;14.85;100.00;100289.66;5072139;28;20476;-48
2021/11/09 10:05:38;;;;;;;3.60;0.20;;;;;;;14.65;100.00;100304.47;5072644;28;20503;-48
2021/11/09 10:08:48;;;;;;;3.83;0.50;;;;;;;14.56;100.00;100295.44;5072673;28;20150;-49
2021/11/09 10:11:52;;;;;;;2.50;0.60;;;;;;;14.66;100.00;100294.78;5072352;28;20123;-47
2021/11/09 10:14:57;;;;;;;1.08;0.55;;;;;;;14.82;100.00;100280.19;5072431;28;20040;-48
2021/11/09 10:18:04;;;;;;;0.75;0.28;;;;;;;15.00;100.00;100279.88;5072528;28;20038;-47
2021/11/09 10:21:06;;;;;;;4.78;0.47;;;;;;;15.04;100.00;100279.63;5079869;28;20042;-48
2021/11/09 10:24:29;;;;;;;0.20;0.20;;;;;;;15.00;100.00;100277.06;5074341;28;20094;-49
2021/11/09 10:27:35;;;;;;;2.42;0.50;;;;;;;14.92;100.00;100281.56;5072577;28;20081;-49
2021/11/09 10:30:52;;;;;;;1.80;0.15;;;;;;;14.94;100.00;100276.22;5072096;28;20565;-48
2021/11/09 10:33:55;;;;;;;1.08;0.30;;;;;;;15.04;100.00;100274.78;5072400;28;20039;-48
2021/11/09 10:37:22;;;;;;;0.75;0.20;;;;;;;15.26;100.00;100284.66;5072535;28;20558;-48
2021/11/09 10:40:31;;;;;;;3.28;0.73;;;;;;;15.25;100.00;100274.69;5071862;28;20105;-47
2021/11/09 10:43:35;;;;;;;1.08;0.40;;;;;;;15.22;100.00;100279.28;5072414;28;20047;-48
2021/11/09 10:46:40;;;;;;;3.22;0.25;;;;;;;15.29;100.00;100278.81;5071722;28;20446;-48
2021/11/09 10:49:46;;;;;;;0.43;0.10;;;;;;;15.39;100.00;100276.63;5071550;28;20090;-48
2021/11/09 10:53:08;;;;;;;5.05;0.20;;;;;;;15.41;100.00;100272.03;5071882;28;20566;-48
2021/11/09 10:56:55;;;;;;;6.80;0.65;;;;;;;15.41;100.00;100272.03;5072256;28;20093;-49
2021/11/09 11:00:13;;;;;;;1.42;0.40;;;;;;;15.25;100.00;100266.28;5072138;28;20412;-49
2021/11/09 11:06:47;;;;;;;;;;;;;;;15.09;100.00;100276.88;5073023;28;20174;-47
2021/11/09 11:09:59;;;;;;;0.10;0.10;;;;;;;15.04;100.00;100277.59;5072193;28;19919;-47
2021/11/09 11:13:20;;;;;;;2.83;0.10;;;;;;;14.96;100.00;100272.94;5075788;28;20540;-47
2021/11/09 11:16:26;;;;;;;4.88;2.65;;;;;;;15.04;100.00;100265.59;5083916;28;20042;-49
2021/11/09 11:19:29;;;;;;;8.88;2.70;;;;;;;15.14;100.00;100273.34;5075709;28;20524;-49
2021/11/09 11:22:33;;;;;;;8.73;0.85;;;;;;;15.12;100.00;100264.66;5075313;28;20557;-49
2021/11/09 11:25:36;;;;;;;4.90;0.85;;;;;;;15.12;100.00;100259.06;5075722;28;20064;-48
2021/11/09 11:28:43;;;;;;;1.38;0.77;;;;;;;15.16;100.00;100256.78;5075403;28;20098;-48
2021/11/09 11:31:48;;;;;;;8.48;1.25;;;;;;;15.30;100.00;100245.94;5075426;28;20109;-48
2021/11/09 11:34:51;;;;;;;2.25;1.52;;;;;;;15.25;100.00;100249.44;5075095;28;20479;-49
2021/11/09 11:37:54;;;;;;;3.58;1.48;;;;;;;15.16;100.00;100248.38;5075780;28;20078;-48
2021/11/09 11:41:00;;;;;;;2.97;0.68;;;;;;;15.02;100.00;100240.88;5063483;28;20576;-49
2021/11/09 11:44:08;;;;;;;7.28;2.03;;;;;;;14.94;100.00;100236.94;5046798;28;20098;-48
2021/11/09 11:47:18;;;;;;;3.95;1.60;;;;;;;15.02;100.00;100238.06;5060594;28;20055;-49
2021/11/09 11:50:21;;;;;;;0.88;0.65;;;;;;;15.01;100.00;100225.28;5059934;28;20684;-49
2021/11/09 11:53:41;;;;;;;1.65;0.50;;;;;;;15.12;100.00;100224.59;5075388;28;20035;-49
2021/11/09 11:56:52;;;;;;;3.92;1.63;;;;;;;15.25;100.00;100224.19;5074441;28;20118;-50
2021/11/09 11:59:56;;;;;;;2.83;1.17;;;;;;;15.25;100.00;100221.38;5075082;28;20058;-50
2021/11/09 12:03:03;;;;;;;2.95;0.98;;;;;;;15.36;100.00;100216.63;5075171;28;20035;-49
2021/11/09 12:06:21;;;;;;;2.92;0.77;;;;;;;15.57;100.00;100208.91;5074907;28;20060;-49
2021/11/09 12:09:33;;;;;;;3.72;1.00;;;;;;;15.71;100.00;100213.56;5081402;28;20081;-49
2021/11/09 12:12:36;;;;;;;3.53;0.40;;;;;;;15.71;100.00;100210.75;5093242;28;20039;-49
2021/11/09 12:15:57;;;;;;;1.23;0.45;;;;;;;15.82;100.00;100202.41;5092066;28;20130;-49
2021/11/09 12:19:01;;;;;;;0.20;0.00;;;;;;;15.78;100.00;100202.66;5076033;28;20437;-49
2021/11/09 12:22:06;;;;;;;0.45;0.40;;;;;;;15.92;100.00;100207.28;5074450;28;20094;-49
2021/11/09 12:25:15;;;;;;;0.10;0.00;;;;;;;16.02;100.00;100204.28;5075023;28;20122;-49
2021/11/09 12:28:20;;;;;;;0.10;0.10;;;;;;;16.10;100.00;100206.09;5074754;28;20421;-48
2021/11/09 12:31:23;;;;;;;0.15;0.15;;;;;;;16.23;100.00;100197.97;5074567;28;20047;-48
2021/11/09 12:35:02;;;;;;;0.80;0.10;;;;;;;16.52;100.00;100189.13;5074371;28;20481;-49
2021/11/09 12:38:17;;;;;;;1.10;0.40;;;;;;;16.85;100.00;100179.94;5074597;28;20085;-49
2021/11/09 12:41:27;;;;;;;0.10;0.00;;;;;;;17.11;100.00;100182.50;5084395;28;20158;-48
2021/11/09 12:44:34;;;;;;;0.08;0.00;;;;;;;17.33;100.00;100182.47;5074305;28;20381;-47
2021/11/09 12:47:37;;;;;;;2.80;0.10;;;;;;;17.44;100.00;100182.47;5074250;28;20140;-50
2021/11/09 12:50:48;;;;;;;0.10;0.10;;;;;;;17.52;100.00;100183.50;5075187;28;20040;-49
2021/11/09 12:53:53;;;;;;;;;;;;;;;17.53;100.00;100184.25;5076503;28;20431;-49
2021/11/09 12:57:02;;;;;;;0.10;0.03;;;;;;;17.27;100.00;100182.50;5077892;28;19919;-48
2021/11/09 13:00:09;;;;;;;0.90;0.17;;;;;;;17.07;100.00;100173.56;5073962;28;20405;-48
2021/11/09 13:03:36;;;;;;;0.55;0.10;;;;;;;17.08;100.00;100175.09;5073958;28;20381;-48
2021/11/09 13:10:17;;;;;;;0.00;0.00;;;;;;;17.15;100.00;100175.34;5078777;28;20076;-49
2021/11/09 13:13:21;;;;;;;0.10;0.10;;;;;;;17.03;100.00;100173.03;5075354;28;20094;-49
2021/11/09 13:16:23;;;;;;;6.85;0.17;;;;;;;16.84;100.00;100180.47;5055827;28;20527;-49
2021/11/09 13:19:37;;;;;;;0.20;0.00;;;;;;;16.75;100.00;100180.72;5049303;28;20691;-49
2021/11/09 13:23:07;;;;;;;1.17;0.20;;;;;;;16.58;100.00;100178.66;5054158;28;20059;-50
2021/11/09 13:26:11;;;;;;;0.43;0.10;;;;;;;16.38;100.00;100178.06;5054423;28;20062;-45
2021/11/09 13:29:13;;;;;;;0.00;0.00;;;;;;;16.31;100.00;100168.09;5050912;28;20114;-49
2021/11/09 13:32:17;;;;;;;0.10;0.00;;;;;;;16.25;100.00;100178.56;5042044;28;20110;-48
2021/11/09 13:35:23;;;;;;;0.08;0.00;;;;;;;16.22;100.00;100173.94;5034451;28;20039;-49
2021/11/09 13:38:35;;;;;;;0.22;0.10;;;;;;;16.16;100.00;100178.78;5034369;28;20035;-49
2021/11/09 13:41:39;;;;;;;0.03;0.00;;;;;;;16.14;100.00;100189.75;5049988;28;20035;-49
2021/11/09 13:44:42;;;;;;;0.20;0.00;;;;;;;16.09;100.00;100179.25;5033358;28;20542;-49
2021/11/09 13:47:46;;;;;;;10.43;0.82;;;;;;;16.01;100.00;100183.06;5032452;28;20047;-48
2021/11/09 13:50:51;;;;;;;0.57;0.10;;;;;;;15.96;100.00;100190.19;5032037;28;20036;-47
2021/11/09 13:54:05;;;;;;;0.35;0.17;;;;;;;15.78;100.00;100185.03;5032407;28;20571;-49
2021/11/09 13:57:10;;;;;;;1.27;0.30;;;;;;;15.63;100.00;100178.81;5033263;28;20546;-49
2021/11/09 14:00:17;;;;;;;2.15;0.35;;;;;;;15.55;100.00;100184.13;5032096;28;20036;-49
2021/11/09 14:09:52;;;;;;;0.52;0.35;;;;;;;15.42;100.00;100185.81;5032140;28;20055;-49
2021/11/09 14:19:28;;;;;;;1.10;0.40;;;;;;;15.05;100.00;100186.56;5046985;28;20050;-49
2021/11/09 14:22:32;;;;;;;3.38;0.55;;;;;;;15.08;100.00;100187.59;5047275;28;20339;-47
2021/11/09 14:25:35;;;;;;;6.57;0.90;;;;;;;15.16;100.00;100180.25;5048250;28;20374;-48
2021/11/09 14:28:38;;;;;;;2.35;0.85;;;;;;;15.15;100.00;100178.75;5047128;28;20074;-49
2021/11/09 14:31:47;;;;;;;9.20;1.67;;;;;;;15.07;100.00;100178.41;5046539;28;20047;-49
2021/11/09 14:35:16;;;;;;;5.10;1.17;;;;;;;15.04;100.00;100187.06;5046894;28;20872;-49
2021/11/09 14:38:22;;;;;;;8.27;1.40;;;;;;;14.99;100.00;100196.97;5047416;28;20038;-49
2021/11/09 14:41:27;;;;;;;5.03;2.30;;;;;;;14.93;100.00;100201.78;5047241;28;20044;-49
2021/11/09 14:45:14;;;;;;;5.72;0.85;;;;;;;14.86;100.00;100199.41;5047466;28;20405;-49
2021/11/09 14:48:52;;;;;;;5.40;1.00;;;;;;;14.84;100.00;100201.94;5053666;28;20094;-50
2021/11/09 14:51:57;;;;;;;17.42;2.03;;;;;;;14.76;100.00;100203.66;5072303;28;20036;-50
2021/11/09 14:55:30;;;;;;;2.38;1.00;;;;;;;14.69;100.00;100197.72;5072129;28;20051;-48
2021/11/09 14:58:33;;;;;;;4.03;1.00;;;;;;;14.59;100.00;100197.13;5072034;28;20611;-48
2021/11/09 15:01:47;;;;;;;6.03;0.85;;;;;;;14.55;100.00;100188.19;5085598;28;20055;-56
2021/11/09 15:04:53;;;;;;;0.30;0.28;;;;;;;14.43;100.00;100198.50;5077761;28;20043;-56
2021/11/09 15:08:05;;;;;;;5.07;0.38;;;;;;;14.25;100.00;100200.81;5092193;28;20043;-56
2021/11/09 15:11:23;;;;;;;1.33;0.57;;;;;;;14.35;100.00;100199.44;5083782;28;20051;-56
2021/11/09 15:31:03;;;;;;;1.48;0.43;;;;;;;14.19;100.00;100225.16;5071476;28;20500;-55
2021/11/09 15:37:34;;;;;;;2.95;0.70;;;;;;;13.48;100.00;100228.56;5071845;28;20042;-56
2021/11/09 15:40:37;;;;;;;0.50;0.50;;;;;;;14.00;100.00;100221.13;5071378;28;20528;-56
2021/11/09 15:43:41;;;;;;;1.00;0.65;;;;;;;14.06;100.00;100214.34;5071963;28;20051;-47
2021/11/09 15:46:45;;;;;;;0.65;0.63;;;;;;;14.09;100.00;100215.38;5071570;28;20141;-47
2021/11/09 15:49:49;;;;;;;3.60;0.95;;;;;;;14.08;100.00;100216.63;5071825;28;20039;-47
2021/11/09 15:52:52;;;;;;;0.50;0.35;;;;;;;14.07;100.00;100215.09;5071577;28;20050;-47
2021/11/09 15:55:56;;;;;;;1.30;0.73;;;;;;;14.03;100.00;100220.94;5071908;28;20098;-51
2021/11/09 15:59:00;;;;;;;0.80;0.55;;;;;;;14.04;100.00;100221.69;5073667;28;20098;-48
2021/11/09 16:02:04;;;;;;;1.67;0.93;;;;;;;14.09;100.00;100215.38;5075386;28;20086;-48
2021/11/09 16:05:08;;;;;;;3.95;1.15;;;;;;;14.05;100.00;100223.22;5074859;28;20102;-48
2021/11/09 16:08:11;;;;;;;12.13;0.93;;;;;;;14.02;100.00;100221.41;5074946;28;20047;-47
2021/11/09 16:11:15;;;;;;;3.85;0.95;;;;;;;13.87;100.00;100224.28;5074997;28;20047;-46
2021/11/09 16:14:18;;;;;;;2.05;0.40;;;;;;;13.84;100.00;100233.66;5074962;28;20460;-53
2021/11/09 16:17:21;;;;;;;1.67;0.55;;;;;;;13.75;100.00;100227.41;5084250;28;20090;-51
2021/11/09 16:20:27;;;;;;;1.02;0.45;;;;;;;13.74;100.00;100234.25;5074934;28;20357;-50
2021/11/09 16:23:31;;;;;;;1.45;0.70;;;;;;;13.76;100.00;100228.94;5074240;28;20102;-51
2021/11/09 16:26:36;;;;;;;0.93;0.25;;;;;;;13.76;100.00;100228.94;5074758;28;20066;-58
2021/11/09 16:29:59;;;;;;;1.73;0.88;;;;;;;13.78;100.00;100232.03;5073352;28;20081;-58
2021/11/09 16:33:22;;;;;;;0.80;0.63;;;;;;;13.72;100.00;100234.00;5074790;28;20124;-58
2021/11/09 16:36:27;;;;;;;1.20;0.73;;;;;;;13.71;100.00;100238.06;5074617;28;20373;-58
2021/11/09 16:39:39;;;;;;;1.05;0.35;;;;;;;13.64;100.00;100234.38;5081387;28;20094;-56
2021/11/09 16:43:06;;;;;;;2.88;0.68;;;;;;;13.62;100.00;100245.31;5077581;28;20044;-55
2021/11/09 16:52:31;;;;;;;1.02;0.40;;;;;;;13.50;100.00;100245.63;5074109;28;20075;-55
2021/11/09 17:09:08;;;;;;;5.35;2.13;;;;;;;13.47;100.00;100249.41;5068005;28;20086;-57
2021/11/09 18:01:33;;;;;;;6.55;1.33;;;;;;;13.40;100.00;100247.78;5073030;28;20052;-57
2021/11/09 18:16:34;;;;;;;2.63;0.50;;;;;;;13.35;100.00;100267.28;5046858;28;20113;-55
2021/11/09 18:22:30;;;;;;;2.03;0.47;;;;;;;13.25;100.00;100272.22;5044548;28;20364;-56
2021/11/09 18:25:35;;;;;;;1.08;0.50;;;;;;;13.27;100.00;100271.72;5046394;28;20094;-54
2021/11/09 18:28:40;;;;;;;4.47;0.65;;;;;;;13.28;100.00;100279.63;5044848;28;20603;-56
2021/11/09 18:31:43;;;;;;;1.27;0.40;;;;;;;13.26;100.00;100275.75;5044534;28;20085;-56